sensor_id;sensor_type;location;lat;lon;timestamp;pressure;altitude;pressure_sealevel;temperature;humidity
59493;BME280;45497;43.996;22.876;2022-09-27T00:05:46;100185.91;;;19.21;64.78
59493;BME280;45497;43.996;22.876;2022-09-27T00:08:12;100183.78;;;19.23;64.54
59493;BME280;45497;43.996;22.876;2022-09-27T00:10:38;100173.03;;;19.23;64.70
59493;BME280;45497;43.996;22.876;2022-09-27T00:15:20;100166.19;;;19.15;64.89
59493;BME280;45497;43.996;22.876;2022-09-27T00:17:46;100168.88;;;19.15;64.89
59493;BME280;45497;43.996;22.876;2022-09-27T00:20:11;100177.50;;;19.17;64.88
59493;BME280;45497;43.996;22.876;2022-09-27T00:22:37;100176.31;;;19.25;64.92
59493;BME280;45497;43.996;22.876;2022-09-27T00:25:28;100170.44;;;19.28;64.90
59493;BME280;45497;43.996;22.876;2022-09-27T00:27:54;100174.31;;;19.32;64.93
59493;BME280;45497;43.996;22.876;2022-09-27T00:30:19;100164.81;;;19.29;64.72
59493;BME280;45497;43.996;22.876;2022-09-27T00:32:45;100161.66;;;19.33;64.87
59493;BME280;45497;43.996;22.876;2022-09-27T00:35:10;100158.19;;;19.32;64.82
59493;BME280;45497;43.996;22.876;2022-09-27T00:37:36;100144.88;;;19.25;64.92
59493;BME280;45497;43.996;22.876;2022-09-27T00:40:02;100141.97;;;19.27;64.79
59493;BME280;45497;43.996;22.876;2022-09-27T00:42:27;100123.94;;;19.27;64.72
59493;BME280;45497;43.996;22.876;2022-09-27T00:45:00;100117.19;;;19.25;64.75
59493;BME280;45497;43.996;22.876;2022-09-27T00:48:05;100119.06;;;19.24;64.57
59493;BME280;45497;43.996;22.876;2022-09-27T00:50:40;100126.88;;;19.26;64.52
59493;BME280;45497;43.996;22.876;2022-09-27T00:53:20;100120.94;;;19.24;64.64
59493;BME280;45497;43.996;22.876;2022-09-27T00:55:51;100128.28;;;19.28;64.73
59493;BME280;45497;43.996;22.876;2022-09-27T00:59:20;100132.44;;;19.36;64.39
59493;BME280;45497;43.996;22.876;2022-09-27T01:01:48;100122.16;;;19.33;64.33
59493;BME280;45497;43.996;22.876;2022-09-27T01:04:16;100115.88;;;19.27;64.44
59493;BME280;45497;43.996;22.876;2022-09-27T01:06:42;100112.97;;;19.29;64.56
59493;BME280;45497;43.996;22.876;2022-09-27T01:09:09;100110.84;;;19.31;64.60
59493;BME280;45497;43.996;22.876;2022-09-27T01:33:13;100103.91;;;19.35;64.32
59493;BME280;45497;43.996;22.876;2022-09-27T01:41:07;100092.03;;;19.31;64.40
59493;BME280;45497;43.996;22.876;2022-09-27T01:43:45;100100.19;;;19.36;64.45
59493;BME280;45497;43.996;22.876;2022-09-27T01:46:24;100105.88;;;19.40;64.31
59493;BME280;45497;43.996;22.876;2022-09-27T01:48:53;100105.88;;;19.40;64.43
59493;BME280;45497;43.996;22.876;2022-09-27T01:53:51;100090.34;;;19.42;64.29
59493;BME280;45497;43.996;22.876;2022-09-27T01:56:23;100083.91;;;19.43;64.26
59493;BME280;45497;43.996;22.876;2022-09-27T02:01:31;100076.81;;;19.37;64.26
59493;BME280;45497;43.996;22.876;2022-09-27T02:05:55;100070.47;;;19.43;64.19
59493;BME280;45497;43.996;22.876;2022-09-27T02:10:27;100052.06;;;19.35;64.26
59493;BME280;45497;43.996;22.876;2022-09-27T02:13:23;100049.50;;;19.28;64.34
59493;BME280;45497;43.996;22.876;2022-09-27T02:15:57;100049.28;;;19.29;64.55
59493;BME280;45497;43.996;22.876;2022-09-27T02:18:50;100046.25;;;19.26;64.22
59493;BME280;45497;43.996;22.876;2022-09-27T02:21:19;100044.88;;;19.23;64.44
59493;BME280;45497;43.996;22.876;2022-09-27T02:23:51;100045.13;;;19.22;64.51
59493;BME280;45497;43.996;22.876;2022-09-27T02:28:46;100032.66;;;19.16;64.97
59493;BME280;45497;43.996;22.876;2022-09-27T02:32:48;100027.22;;;19.10;64.86
59493;BME280;45497;43.996;22.876;2022-09-27T02:36:50;100019.88;;;19.06;65.17
59493;BME280;45497;43.996;22.876;2022-09-27T02:39:18;100030.63;;;19.06;65.22
59493;BME280;45497;43.996;22.876;2022-09-27T02:41:44;100033.88;;;19.08;65.28
59493;BME280;45497;43.996;22.876;2022-09-27T02:44:12;100038.44;;;19.07;65.21
59493;BME280;45497;43.996;22.876;2022-09-27T03:03:52;100033.25;;;19.18;65.15
59493;BME280;45497;43.996;22.876;2022-09-27T03:06:21;100028.13;;;19.16;65.17
59493;BME280;45497;43.996;22.876;2022-09-27T03:08:48;100021.44;;;19.19;65.18
59493;BME280;45497;43.996;22.876;2022-09-27T03:12:07;100008.75;;;19.14;65.11
59493;BME280;45497;43.996;22.876;2022-09-27T03:14:33;100016.28;;;19.17;65.08
59493;BME280;45497;43.996;22.876;2022-09-27T03:18:02;100012.81;;;19.17;65.20
59493;BME280;45497;43.996;22.876;2022-09-27T03:22:20;100016.63;;;19.21;64.80
59493;BME280;45497;43.996;22.876;2022-09-27T03:24:46;100017.69;;;19.20;65.10
59493;BME280;45497;43.996;22.876;2022-09-27T03:27:11;100015.56;;;19.22;65.02
59493;BME280;45497;43.996;22.876;2022-09-27T03:29:37;100008.31;;;19.22;64.91
59493;BME280;45497;43.996;22.876;2022-09-27T03:32:03;99998.66;;;19.21;64.95
59493;BME280;45497;43.996;22.876;2022-09-27T03:34:28;99993.50;;;19.20;64.99
59493;BME280;45497;43.996;22.876;2022-09-27T03:36:54;99988.06;;;19.15;65.11
59493;BME280;45497;43.996;22.876;2022-09-27T03:39:20;99996.44;;;19.18;64.91
59493;BME280;45497;43.996;22.876;2022-09-27T03:41:45;99993.50;;;19.20;64.93
59493;BME280;45497;43.996;22.876;2022-09-27T03:44:11;99987.56;;;19.18;64.95
59493;BME280;45497;43.996;22.876;2022-09-27T03:49:48;99983.75;;;19.31;64.84
59493;BME280;45497;43.996;22.876;2022-09-27T03:52:14;99980.50;;;19.28;64.79
59493;BME280;45497;43.996;22.876;2022-09-27T03:56:24;99982.34;;;19.28;64.78
59493;BME280;45497;43.996;22.876;2022-09-27T03:58:50;99993.94;;;19.28;64.92
59493;BME280;45497;43.996;22.876;2022-09-27T04:01:15;100000.91;;;19.29;64.93
59493;BME280;45497;43.996;22.876;2022-09-27T04:07:47;99988.59;;;19.34;64.76
59493;BME280;45497;43.996;22.876;2022-09-27T04:10:14;99994.56;;;19.36;64.66
59493;BME280;45497;43.996;22.876;2022-09-27T04:12:40;99990.81;;;19.37;64.65
59493;BME280;45497;43.996;22.876;2022-09-27T04:15:06;99971.66;;;19.33;64.59
59493;BME280;45497;43.996;22.876;2022-09-27T04:17:33;99975.69;;;19.31;64.85
59493;BME280;45497;43.996;22.876;2022-09-27T04:19:59;99961.16;;;19.32;64.76
59493;BME280;45497;43.996;22.876;2022-09-27T04:22:24;99954.97;;;19.31;64.98
59493;BME280;45497;43.996;22.876;2022-09-27T04:24:50;99950.09;;;19.28;65.06
59493;BME280;45497;43.996;22.876;2022-09-27T04:27:15;99944.47;;;19.29;64.97
59493;BME280;45497;43.996;22.876;2022-09-27T04:29:41;99939.09;;;19.29;64.78
59493;BME280;45497;43.996;22.876;2022-09-27T04:32:10;99937.22;;;19.30;64.77
59493;BME280;45497;43.996;22.876;2022-09-27T04:34:45;99930.78;;;19.31;64.73
59493;BME280;45497;43.996;22.876;2022-09-27T04:37:29;99925.66;;;19.29;65.04
59493;BME280;45497;43.996;22.876;2022-09-27T04:39:54;99928.13;;;19.31;65.08
59493;BME280;45497;43.996;22.876;2022-09-27T04:42:20;99925.19;;;19.33;65.02
59493;BME280;45497;43.996;22.876;2022-09-27T04:44:45;99924.31;;;19.27;65.10
59493;BME280;45497;43.996;22.876;2022-09-27T04:47:19;99928.13;;;19.31;64.95
59493;BME280;45497;43.996;22.876;2022-09-27T04:49:46;99940.41;;;19.27;65.17
59493;BME280;45497;43.996;22.876;2022-09-27T04:52:12;99930.72;;;19.26;65.25
59493;BME280;45497;43.996;22.876;2022-09-27T04:54:40;99929.44;;;19.28;65.12
59493;BME280;45497;43.996;22.876;2022-09-27T04:57:06;99920.22;;;19.24;65.00
59493;BME280;45497;43.996;22.876;2022-09-27T04:59:31;99923.13;;;19.23;65.22
59493;BME280;45497;43.996;22.876;2022-09-27T05:01:57;99926.91;;;19.22;65.22
59493;BME280;45497;43.996;22.876;2022-09-27T05:04:26;99923.41;;;19.21;65.28
59493;BME280;45497;43.996;22.876;2022-09-27T05:06:51;99936.41;;;19.29;65.31
59493;BME280;45497;43.996;22.876;2022-09-27T05:09:18;99939.09;;;19.29;65.28
59493;BME280;45497;43.996;22.876;2022-09-27T05:11:43;99947.72;;;19.32;65.10
59493;BME280;45497;43.996;22.876;2022-09-27T05:14:09;99942.91;;;19.34;65.11
59493;BME280;45497;43.996;22.876;2022-09-27T05:16:34;99939.75;;;19.37;64.89
59493;BME280;45497;43.996;22.876;2022-09-27T05:19:03;99938.44;;;19.39;64.95
59493;BME280;45497;43.996;22.876;2022-09-27T05:21:28;99938.50;;;19.44;65.24
59493;BME280;45497;43.996;22.876;2022-09-27T05:23:55;99945.75;;;19.44;65.10
59493;BME280;45497;43.996;22.876;2022-09-27T05:26:21;99937.63;;;19.39;64.94
59493;BME280;45497;43.996;22.876;2022-09-27T05:28:47;99931.69;;;19.37;64.78
59493;BME280;45497;43.996;22.876;2022-09-27T05:31:12;99938.94;;;19.36;64.79
59493;BME280;45497;43.996;22.876;2022-09-27T05:33:39;99940.88;;;19.41;64.76
59493;BME280;45497;43.996;22.876;2022-09-27T05:36:05;99941.63;;;19.36;65.11
59493;BME280;45497;43.996;22.876;2022-09-27T05:38:31;99936.16;;;19.31;65.33
59493;BME280;45497;43.996;22.876;2022-09-27T05:40:57;99936.50;;;19.35;65.53
59493;BME280;45497;43.996;22.876;2022-09-27T05:43:22;99932.56;;;19.42;65.51
59493;BME280;45497;43.996;22.876;2022-09-27T05:45:49;99931.34;;;19.50;65.31
59493;BME280;45497;43.996;22.876;2022-09-27T05:48:17;99942.13;;;19.55;65.17
59493;BME280;45497;43.996;22.876;2022-09-27T05:50:43;99942.22;;;19.60;65.21
59493;BME280;45497;43.996;22.876;2022-09-27T05:53:09;99940.72;;;19.70;65.24
59493;BME280;45497;43.996;22.876;2022-09-27T05:55:35;99941.00;;;19.68;65.01
59493;BME280;45497;43.996;22.876;2022-09-27T05:58:06;99948.78;;;19.70;65.17
59493;BME280;45497;43.996;22.876;2022-09-27T06:00:32;99947.16;;;19.68;64.73
59493;BME280;45497;43.996;22.876;2022-09-27T06:03:03;99946.69;;;19.72;64.84
59493;BME280;45497;43.996;22.876;2022-09-27T06:05:33;99948.16;;;19.79;64.95
59493;BME280;45497;43.996;22.876;2022-09-27T06:08:01;99949.19;;;19.78;64.98
59493;BME280;45497;43.996;22.876;2022-09-27T06:10:28;99940.81;;;19.75;65.06
59493;BME280;45497;43.996;22.876;2022-09-27T06:13:05;99947.84;;;19.76;65.18
59493;BME280;45497;43.996;22.876;2022-09-27T06:15:32;99943.31;;;19.81;65.07
59493;BME280;45497;43.996;22.876;2022-09-27T06:18:16;99939.25;;;19.79;64.74
59493;BME280;45497;43.996;22.876;2022-09-27T06:23:08;99941.91;;;19.74;65.19
59493;BME280;45497;43.996;22.876;2022-09-27T06:25:37;99951.97;;;19.83;64.87
59493;BME280;45497;43.996;22.876;2022-09-27T06:28:03;99949.50;;;19.82;64.87
59493;BME280;45497;43.996;22.876;2022-09-27T06:30:29;99954.31;;;19.80;64.90
59493;BME280;45497;43.996;22.876;2022-09-27T06:32:59;99954.41;;;19.85;64.70
59493;BME280;45497;43.996;22.876;2022-09-27T06:35:25;99942.31;;;19.88;64.57
59493;BME280;45497;43.996;22.876;2022-09-27T06:37:52;99935.41;;;19.92;64.42
59493;BME280;45497;43.996;22.876;2022-09-27T06:41:55;99941.25;;;20.11;63.89
59493;BME280;45497;43.996;22.876;2022-09-27T06:44:22;99936.22;;;20.19;63.75
59493;BME280;45497;43.996;22.876;2022-09-27T06:46:49;99937.34;;;20.23;63.69
59493;BME280;45497;43.996;22.876;2022-09-27T06:49:15;99942.72;;;20.23;63.68
59493;BME280;45497;43.996;22.876;2022-09-27T06:51:40;99945.31;;;20.13;63.81
59493;BME280;45497;43.996;22.876;2022-09-27T06:54:07;99939.47;;;20.21;63.34
59493;BME280;45497;43.996;22.876;2022-09-27T06:56:32;99933.13;;;20.33;63.19
59493;BME280;45497;43.996;22.876;2022-09-27T06:58:58;99936.72;;;20.43;62.90
59493;BME280;45497;43.996;22.876;2022-09-27T07:01:44;99938.28;;;20.61;62.35
59493;BME280;45497;43.996;22.876;2022-09-27T07:04:10;99924.22;;;20.59;62.29
59493;BME280;45497;43.996;22.876;2022-09-27T07:06:36;99933.72;;;20.62;61.98
59493;BME280;45497;43.996;22.876;2022-09-27T07:09:02;99932.84;;;20.56;62.16
59493;BME280;45497;43.996;22.876;2022-09-27T07:11:28;99930.50;;;20.65;62.10
59493;BME280;45497;43.996;22.876;2022-09-27T07:13:53;99934.69;;;20.78;61.82
59493;BME280;45497;43.996;22.876;2022-09-27T07:16:21;99938.97;;;20.79;61.31
59493;BME280;45497;43.996;22.876;2022-09-27T07:18:48;99930.28;;;20.72;61.40
59493;BME280;45497;43.996;22.876;2022-09-27T07:22:26;99938.13;;;20.73;61.31
59493;BME280;45497;43.996;22.876;2022-09-27T07:24:51;99942.91;;;20.66;61.17
59493;BME280;45497;43.996;22.876;2022-09-27T07:27:17;99947.66;;;20.59;61.48
59493;BME280;45497;43.996;22.876;2022-09-27T07:29:42;99949.31;;;20.60;61.58
59493;BME280;45497;43.996;22.876;2022-09-27T07:32:08;99949.88;;;20.62;61.19
59493;BME280;45497;43.996;22.876;2022-09-27T07:34:34;99942.47;;;20.52;61.36
59493;BME280;45497;43.996;22.876;2022-09-27T07:36:59;99935.47;;;20.51;61.80
59493;BME280;45497;43.996;22.876;2022-09-27T07:39:25;99936.34;;;20.57;61.39
59493;BME280;45497;43.996;22.876;2022-09-27T07:41:51;99934.94;;;20.54;61.85
59493;BME280;45497;43.996;22.876;2022-09-27T07:44:17;99937.31;;;20.46;62.04
59493;BME280;45497;43.996;22.876;2022-09-27T07:46:42;99932.75;;;20.46;62.23
59493;BME280;45497;43.996;22.876;2022-09-27T07:49:08;99940.72;;;20.63;61.78
59493;BME280;45497;43.996;22.876;2022-09-27T07:51:33;99940.56;;;20.75;61.62
59493;BME280;45497;43.996;22.876;2022-09-27T07:53:59;99938.19;;;20.78;61.53
59493;BME280;45497;43.996;22.876;2022-09-27T07:56:28;99932.53;;;20.80;61.48
59493;BME280;45497;43.996;22.876;2022-09-27T07:58:53;99944.38;;;20.79;61.40
59493;BME280;45497;43.996;22.876;2022-09-27T08:01:19;99924.06;;;20.66;61.62
59493;BME280;45497;43.996;22.876;2022-09-27T08:03:45;99921.63;;;20.65;61.55
59493;BME280;45497;43.996;22.876;2022-09-27T08:06:11;99924.81;;;20.61;61.72
59493;BME280;45497;43.996;22.876;2022-09-27T08:08:37;99920.72;;;20.59;61.39
59493;BME280;45497;43.996;22.876;2022-09-27T08:11:12;99920.72;;;20.59;61.56
59493;BME280;45497;43.996;22.876;2022-09-27T08:13:42;99914.09;;;20.67;61.50
59493;BME280;45497;43.996;22.876;2022-09-27T08:16:08;99914.47;;;20.80;61.51
59493;BME280;45497;43.996;22.876;2022-09-27T08:18:35;99906.50;;;20.91;61.36
59493;BME280;45497;43.996;22.876;2022-09-27T08:21:01;99913.75;;;20.90;61.34
59493;BME280;45497;43.996;22.876;2022-09-27T08:23:27;99918.22;;;20.79;61.28
59493;BME280;45497;43.996;22.876;2022-09-27T08:25:53;99909.06;;;20.75;61.36
59493;BME280;45497;43.996;22.876;2022-09-27T08:28:37;99907.16;;;20.76;61.37
59493;BME280;45497;43.996;22.876;2022-09-27T08:31:03;99914.13;;;20.72;61.08
59493;BME280;45497;43.996;22.876;2022-09-27T08:33:28;99903.16;;;20.78;60.78
59493;BME280;45497;43.996;22.876;2022-09-27T08:35:54;99894.56;;;20.81;60.62
59493;BME280;45497;43.996;22.876;2022-09-27T08:38:19;99898.91;;;20.88;60.48
59493;BME280;45497;43.996;22.876;2022-09-27T08:45:59;99900.06;;;20.97;60.31
59493;BME280;45497;43.996;22.876;2022-09-27T08:48:29;99892.78;;;20.97;60.21
59493;BME280;45497;43.996;22.876;2022-09-27T08:50:56;99887.97;;;20.99;60.30
59493;BME280;45497;43.996;22.876;2022-09-27T08:53:30;99893.94;;;21.12;60.25
59493;BME280;45497;43.996;22.876;2022-09-27T08:55:59;99885.38;;;21.20;60.21
59493;BME280;45497;43.996;22.876;2022-09-27T08:58:39;99893.75;;;21.24;60.10
59493;BME280;45497;43.996;22.876;2022-09-27T09:01:14;99884.88;;;21.23;60.11
59493;BME280;45497;43.996;22.876;2022-09-27T09:03:46;99881.88;;;21.19;59.99
59493;BME280;45497;43.996;22.876;2022-09-27T09:06:22;99884.59;;;21.19;59.98
59493;BME280;45497;43.996;22.876;2022-09-27T09:23:29;99871.81;;;21.47;59.73
59493;BME280;45497;43.996;22.876;2022-09-27T09:31:41;99854.56;;;21.53;59.30
59493;BME280;45497;43.996;22.876;2022-09-27T09:37:01;99861.63;;;21.65;58.90
59493;BME280;45497;43.996;22.876;2022-09-27T09:39:35;99854.09;;;21.72;58.79
59493;BME280;45497;43.996;22.876;2022-09-27T09:44:40;99882.94;;;21.71;58.68
59493;BME280;45497;43.996;22.876;2022-09-27T09:47:42;99881.84;;;21.67;58.94
59493;BME280;45497;43.996;22.876;2022-09-27T09:50:19;99875.13;;;21.65;58.86
59493;BME280;45497;43.996;22.876;2022-09-27T09:52:49;99875.91;;;21.60;58.84
59493;BME280;45497;43.996;22.876;2022-09-27T09:56:29;99878.06;;;21.63;58.72
59493;BME280;45497;43.996;22.876;2022-09-27T09:59:00;99868.91;;;21.69;58.90
59493;BME280;45497;43.996;22.876;2022-09-27T10:01:41;99862.44;;;21.65;58.91
59493;BME280;45497;43.996;22.876;2022-09-27T10:04:17;99855.44;;;21.69;58.47
59493;BME280;45497;43.996;22.876;2022-09-27T10:06:44;99866.75;;;21.71;58.55
59493;BME280;45497;43.996;22.876;2022-09-27T10:09:14;99864.31;;;21.65;58.64
59493;BME280;45497;43.996;22.876;2022-09-27T10:11:41;99858.94;;;21.65;59.18
59493;BME280;45497;43.996;22.876;2022-09-27T10:14:16;99861.91;;;21.63;59.48
59493;BME280;45497;43.996;22.876;2022-09-27T10:16:45;99860.25;;;21.62;59.43
59493;BME280;45497;43.996;22.876;2022-09-27T10:19:14;99858.38;;;21.57;59.67
59493;BME280;45497;43.996;22.876;2022-09-27T10:21:42;99852.69;;;21.54;59.86
59493;BME280;45497;43.996;22.876;2022-09-27T10:24:14;99854.03;;;21.56;59.33
59493;BME280;45497;43.996;22.876;2022-09-27T10:28:50;99854.28;;;21.50;59.57
59493;BME280;45497;43.996;22.876;2022-09-27T10:31:18;99854.81;;;21.47;60.04
59493;BME280;45497;43.996;22.876;2022-09-27T10:33:56;99859.41;;;21.51;60.42
59493;BME280;45497;43.996;22.876;2022-09-27T10:36:34;99866.72;;;21.56;60.97
59493;BME280;45497;43.996;22.876;2022-09-27T10:39:03;99865.91;;;21.55;60.59
59493;BME280;45497;43.996;22.876;2022-09-27T10:43:55;99859.16;;;21.58;61.06
59493;BME280;45497;43.996;22.876;2022-09-27T10:46:25;99854.84;;;21.57;61.60
59493;BME280;45497;43.996;22.876;2022-09-27T10:49:18;99850.03;;;21.59;61.32
59493;BME280;45497;43.996;22.876;2022-09-27T10:51:45;99837.91;;;21.67;61.41
59493;BME280;45497;43.996;22.876;2022-09-27T10:54:22;99847.63;;;21.78;61.11
59493;BME280;45497;43.996;22.876;2022-09-27T10:57:05;99847.13;;;21.81;61.03
59493;BME280;45497;43.996;22.876;2022-09-27T10:59:41;99834.44;;;21.82;61.22
59493;BME280;45497;43.996;22.876;2022-09-27T11:02:30;99834.41;;;21.76;60.81
59493;BME280;45497;43.996;22.876;2022-09-27T11:07:50;99837.66;;;21.73;61.39
59493;BME280;45497;43.996;22.876;2022-09-27T11:13:31;99836.06;;;21.83;60.83
59493;BME280;45497;43.996;22.876;2022-09-27T11:16:22;99837.94;;;21.87;61.17
59493;BME280;45497;43.996;22.876;2022-09-27T11:30:20;99806.94;;;21.95;60.36
59493;BME280;45497;43.996;22.876;2022-09-27T11:37:14;99797.50;;;22.03;59.62
59493;BME280;45497;43.996;22.876;2022-09-27T11:40:04;99787.78;;;22.07;59.46
59493;BME280;45497;43.996;22.876;2022-09-27T11:43:01;99787.00;;;22.11;59.26
59493;BME280;45497;43.996;22.876;2022-09-27T11:45:33;99778.91;;;22.11;58.79
59493;BME280;45497;43.996;22.876;2022-09-27T11:56:32;99765.91;;;21.93;59.81
59493;BME280;45497;43.996;22.876;2022-09-27T12:05:04;99738.41;;;21.96;59.80
59493;BME280;45497;43.996;22.876;2022-09-27T12:10:14;99747.03;;;22.03;59.87
59493;BME280;45497;43.996;22.876;2022-09-27T12:12:43;99741.91;;;22.02;59.54
59493;BME280;45497;43.996;22.876;2022-09-27T12:15:19;99738.13;;;21.98;59.97
59493;BME280;45497;43.996;22.876;2022-09-27T12:17:48;99734.63;;;22.12;60.38
59493;BME280;45497;43.996;22.876;2022-09-27T12:20:20;99716.78;;;22.22;59.93
59493;BME280;45497;43.996;22.876;2022-09-27T12:25:49;99708.72;;;22.32;59.32
59493;BME280;45497;43.996;22.876;2022-09-27T12:28:32;99710.63;;;22.31;58.95
59493;BME280;45497;43.996;22.876;2022-09-27T12:36:30;99708.69;;;22.47;58.53
59493;BME280;45497;43.996;22.876;2022-09-27T12:41:32;99704.38;;;22.41;58.77
59493;BME280;45497;43.996;22.876;2022-09-27T12:44:00;99682.72;;;22.62;58.75
59493;BME280;45497;43.996;22.876;2022-09-27T12:51:59;99672.72;;;22.67;57.47
59493;BME280;45497;43.996;22.876;2022-09-27T13:00:18;99669.41;;;22.76;58.30
59493;BME280;45497;43.996;22.876;2022-09-27T13:06:15;99676.47;;;22.71;57.66
59493;BME280;45497;43.996;22.876;2022-09-27T13:09:15;99675.59;;;22.81;57.79
59493;BME280;45497;43.996;22.876;2022-09-27T13:14:24;99675.56;;;22.91;57.00
59493;BME280;45497;43.996;22.876;2022-09-27T13:21:01;99689.22;;;23.21;56.96
59493;BME280;45497;43.996;22.876;2022-09-27T13:33:43;99671.66;;;23.23;55.90
59493;BME280;45497;43.996;22.876;2022-09-27T13:39:12;99661.19;;;23.06;56.48
59493;BME280;45497;43.996;22.876;2022-09-27T13:47:25;99637.78;;;22.81;57.54
59493;BME280;45497;43.996;22.876;2022-09-27T13:50:27;99634.00;;;22.87;57.99
59493;BME280;45497;43.996;22.876;2022-09-27T13:55:49;99636.66;;;22.98;57.49
59493;BME280;45497;43.996;22.876;2022-09-27T14:00:49;99632.59;;;22.90;57.47
59493;BME280;45497;43.996;22.876;2022-09-27T14:04:30;99619.84;;;23.01;57.27
59493;BME280;45497;43.996;22.876;2022-09-27T14:07:00;99620.13;;;22.99;56.82
59493;BME280;45497;43.996;22.876;2022-09-27T14:09:36;99611.75;;;23.01;56.91
59493;BME280;45497;43.996;22.876;2022-09-27T14:12:10;99607.69;;;23.03;56.88
59493;BME280;45497;43.996;22.876;2022-09-27T14:14:37;99601.25;;;22.94;57.04
59493;BME280;45497;43.996;22.876;2022-09-27T14:17:06;99591.22;;;23.00;57.15
59493;BME280;45497;43.996;22.876;2022-09-27T14:19:32;99600.38;;;23.09;57.27
59493;BME280;45497;43.996;22.876;2022-09-27T14:21:57;99596.63;;;23.00;56.92
59493;BME280;45497;43.996;22.876;2022-09-27T14:24:30;99599.09;;;22.96;56.54
59493;BME280;45497;43.996;22.876;2022-09-27T14:27:05;99594.75;;;22.95;57.09
59493;BME280;45497;43.996;22.876;2022-09-27T14:29:36;99592.84;;;22.96;56.43
59493;BME280;45497;43.996;22.876;2022-09-27T14:32:04;99606.59;;;22.99;56.65
59493;BME280;45497;43.996;22.876;2022-09-27T14:34:30;99611.47;;;23.02;56.57
59493;BME280;45497;43.996;22.876;2022-09-27T14:36:57;99601.72;;;23.06;56.60
59493;BME280;45497;43.996;22.876;2022-09-27T14:40:04;99612.03;;;23.04;56.97
59493;BME280;45497;43.996;22.876;2022-09-27T14:42:35;99606.84;;;23.03;56.86
59493;BME280;45497;43.996;22.876;2022-09-27T14:47:44;99580.47;;;22.89;56.90
59493;BME280;45497;43.996;22.876;2022-09-27T14:50:25;99582.16;;;22.80;57.11
59493;BME280;45497;43.996;22.876;2022-09-27T14:52:53;99594.88;;;22.75;57.81
59493;BME280;45497;43.996;22.876;2022-09-27T14:55:22;99590.53;;;22.79;57.50
59493;BME280;45497;43.996;22.876;2022-09-27T15:00:26;99593.75;;;22.81;58.03
59493;BME280;45497;43.996;22.876;2022-09-27T15:02:58;99597.00;;;22.78;57.68
59493;BME280;45497;43.996;22.876;2022-09-27T15:05:26;99588.13;;;22.72;57.93
59493;BME280;45497;43.996;22.876;2022-09-27T15:07:53;99584.34;;;22.73;57.94
59493;BME280;45497;43.996;22.876;2022-09-27T15:10:26;99563.31;;;22.60;58.30
59493;BME280;45497;43.996;22.876;2022-09-27T15:12:53;99555.28;;;22.55;58.42
59493;BME280;45497;43.996;22.876;2022-09-27T15:15:24;99555.81;;;22.57;58.62
59493;BME280;45497;43.996;22.876;2022-09-27T15:17:51;99564.16;;;22.60;58.39
59493;BME280;45497;43.996;22.876;2022-09-27T15:22:46;99586.28;;;22.62;58.59
59493;BME280;45497;43.996;22.876;2022-09-27T15:30:38;99738.38;;;22.58;58.08
59493;BME280;45497;43.996;22.876;2022-09-27T15:35:27;99810.94;;;21.82;53.92
59493;BME280;45497;43.996;22.876;2022-09-27T15:38:28;99744.72;;;21.28;55.65
59493;BME280;45497;43.996;22.876;2022-09-27T15:44:04;99664.81;;;20.86;56.16
59493;BME280;45497;43.996;22.876;2022-09-27T15:46:36;99639.97;;;20.74;55.75
59493;BME280;45497;43.996;22.876;2022-09-27T15:49:30;99676.81;;;20.63;57.37
59493;BME280;45497;43.996;22.876;2022-09-27T15:52:01;99701.81;;;20.53;57.68
59493;BME280;45497;43.996;22.876;2022-09-27T15:54:30;99701.69;;;20.38;57.88
59493;BME280;45497;43.996;22.876;2022-09-27T15:57:04;99687.09;;;20.29;58.03
59493;BME280;45497;43.996;22.876;2022-09-27T15:59:33;99679.53;;;20.20;57.49
59493;BME280;45497;43.996;22.876;2022-09-27T16:02:08;99689.44;;;20.15;57.77
59493;BME280;45497;43.996;22.876;2022-09-27T16:04:34;99706.66;;;20.14;58.16
59493;BME280;45497;43.996;22.876;2022-09-27T16:07:00;99712.00;;;20.09;58.65
59493;BME280;45497;43.996;22.876;2022-09-27T16:09:28;99749.38;;;20.05;58.95
59493;BME280;45497;43.996;22.876;2022-09-27T16:11:53;99759.28;;;19.99;58.08
59493;BME280;45497;43.996;22.876;2022-09-27T16:14:19;99745.53;;;19.96;57.65
59493;BME280;45497;43.996;22.876;2022-09-27T16:16:47;99727.69;;;19.84;58.39
59493;BME280;45497;43.996;22.876;2022-09-27T16:19:13;99737.31;;;19.80;58.42
59493;BME280;45497;43.996;22.876;2022-09-27T16:21:38;99754.47;;;19.74;58.71
59493;BME280;45497;43.996;22.876;2022-09-27T16:24:07;99777.78;;;19.68;58.92
59493;BME280;45497;43.996;22.876;2022-09-27T16:26:33;99759.22;;;19.67;59.44
59493;BME280;45497;43.996;22.876;2022-09-27T16:28:59;99764.38;;;19.46;59.17
59493;BME280;45497;43.996;22.876;2022-09-27T16:31:24;99763.69;;;19.34;59.76
59493;BME280;45497;43.996;22.876;2022-09-27T16:33:50;99751.56;;;19.32;59.23
59493;BME280;45497;43.996;22.876;2022-09-27T16:36:15;99760.38;;;19.27;59.69
59493;BME280;45497;43.996;22.876;2022-09-27T16:38:48;99762.16;;;19.16;59.38
59493;BME280;45497;43.996;22.876;2022-09-27T16:41:14;99764.84;;;19.16;59.93
59493;BME280;45497;43.996;22.876;2022-09-27T16:43:39;99771.81;;;19.17;60.35
59493;BME280;45497;43.996;22.876;2022-09-27T16:46:06;99781.13;;;19.09;59.79
59493;BME280;45497;43.996;22.876;2022-09-27T16:48:36;99768.88;;;18.97;60.08
59493;BME280;45497;43.996;22.876;2022-09-27T16:51:15;99768.31;;;18.78;59.93
59493;BME280;45497;43.996;22.876;2022-09-27T16:56:24;99768.66;;;18.64;60.20
59493;BME280;45497;43.996;22.876;2022-09-27T16:58:50;99763.22;;;18.59;60.13
59493;BME280;45497;43.996;22.876;2022-09-27T17:01:16;99771.28;;;18.59;60.33